createdAt,value
2023-12-17T00:00:25.435Z,9.80
2023-12-17T00:03:18.959Z,9.70
2023-12-17T00:06:07.799Z,9.90
2023-12-17T00:08:55.356Z,10.00
2023-12-17T00:11:42.857Z,9.80
2023-12-17T00:14:31.098Z,10.10
2023-12-17T00:17:17.746Z,10.20
2023-12-17T00:20:05.122Z,9.90
2023-12-17T00:22:51.417Z,9.90
2023-12-17T00:25:37.728Z,10.10
2023-12-17T00:28:25.650Z,9.70
2023-12-17T00:31:13.447Z,9.70
2023-12-17T00:34:04.077Z,9.80
2023-12-17T00:36:54.074Z,9.70
2023-12-17T00:39:47.822Z,10.00
2023-12-17T00:42:36.842Z,9.90
2023-12-17T00:45:25.621Z,9.80
2023-12-17T00:48:18.958Z,9.80
2023-12-17T00:51:06.200Z,9.90
2023-12-17T00:53:54.764Z,10.20
2023-12-17T00:56:43.871Z,10.20
2023-12-17T00:59:34.909Z,10.40
2023-12-17T01:02:21.795Z,10.10
2023-12-17T01:05:10.311Z,10.20
2023-12-17T01:07:56.761Z,10.20
2023-12-17T01:10:27.285Z,10.20
2023-12-17T01:12:55.440Z,10.00
2023-12-17T01:15:23.563Z,10.10
2023-12-17T01:17:51.867Z,10.10
2023-12-17T01:20:28.927Z,10.10
2023-12-17T01:22:59.881Z,10.40
2023-12-17T01:25:27.979Z,10.70
2023-12-17T01:27:58.490Z,10.60
2023-12-17T01:30:26.743Z,10.70
2023-12-17T01:32:55.851Z,10.60
2023-12-17T01:35:31.388Z,10.50
2023-12-17T01:38:17.922Z,10.30
2023-12-17T01:41:04.761Z,10.00
2023-12-17T01:43:54.171Z,9.90
2023-12-17T01:46:42.736Z,9.90
2023-12-17T01:49:37.427Z,10.00
2023-12-17T01:52:25.957Z,10.10
2023-12-17T01:55:14.969Z,10.20
2023-12-17T01:58:04.039Z,10.30
2023-12-17T02:00:51.069Z,10.30
2023-12-17T02:03:38.083Z,10.30
2023-12-17T02:06:24.975Z,10.40
2023-12-17T02:09:15.445Z,10.40
2023-12-17T02:12:05.510Z,10.40
2023-12-17T02:14:52.667Z,10.20
2023-12-17T02:17:39.838Z,10.30
2023-12-17T02:20:26.766Z,10.50
2023-12-17T02:23:14.849Z,10.20
2023-12-17T02:26:04.524Z,10.20
2023-12-17T02:28:51.227Z,10.20
2023-12-17T02:31:37.638Z,10.40
2023-12-17T02:34:24.191Z,10.60
2023-12-17T02:37:13.529Z,10.30
2023-12-17T02:40:09.540Z,10.40
2023-12-17T02:42:59.810Z,10.80
2023-12-17T02:45:46.587Z,10.80
2023-12-17T02:48:34.319Z,10.80
2023-12-17T02:51:21.330Z,10.50
2023-12-17T02:54:08.378Z,10.50
2023-12-17T02:56:58.881Z,10.10
2023-12-17T02:59:46.199Z,10.10
2023-12-17T03:02:41.035Z,10.30
2023-12-17T03:05:28.763Z,10.30
2023-12-17T03:08:16.581Z,10.60
2023-12-17T03:11:03.412Z,10.60
2023-12-17T03:13:53.445Z,10.40
2023-12-17T03:16:40.453Z,10.40
2023-12-17T03:19:27.352Z,10.10
2023-12-17T03:22:13.834Z,10.10
2023-12-17T03:25:02.997Z,10.40
2023-12-17T03:27:49.694Z,10.70
2023-12-17T03:30:37.786Z,10.30
2023-12-17T03:33:24.939Z,10.20
2023-12-17T03:36:15.455Z,10.30
2023-12-17T03:39:04.042Z,10.70
2023-12-17T03:41:50.639Z,10.60
2023-12-17T03:44:39.921Z,10.50
2023-12-17T03:47:31.048Z,10.60
2023-12-17T03:50:18.134Z,10.30
2023-12-17T03:53:11.591Z,10.30
2023-12-17T03:55:58.123Z,10.40
2023-12-17T03:58:47.532Z,10.30
2023-12-17T04:01:34.292Z,10.20
2023-12-17T04:04:25.534Z,10.50
2023-12-17T04:07:12.018Z,10.50
2023-12-17T04:10:01.611Z,10.80
2023-12-17T04:12:48.073Z,10.60
2023-12-17T04:15:34.646Z,10.40
2023-12-17T04:18:21.483Z,10.40
2023-12-17T04:21:09.817Z,10.40
2023-12-17T04:23:56.340Z,10.10
2023-12-17T04:26:42.925Z,10.00
2023-12-17T04:29:39.935Z,10.40
2023-12-17T04:32:26.800Z,10.30
2023-12-17T04:35:13.441Z,10.20
2023-12-17T04:38:04.090Z,10.10
2023-12-17T04:40:53.022Z,10.20
2023-12-17T04:43:39.509Z,10.00
2023-12-17T04:46:27.026Z,10.10
2023-12-17T04:49:16.609Z,10.10
2023-12-17T04:52:05.438Z,10.40
2023-12-17T04:54:53.382Z,10.40
2023-12-17T04:57:40.106Z,10.40
2023-12-17T05:00:30.977Z,10.30
2023-12-17T05:03:17.767Z,10.20
2023-12-17T05:06:05.015Z,10.10
2023-12-17T05:08:52.535Z,10.40
2023-12-17T05:11:40.359Z,10.60
2023-12-17T05:14:27.813Z,10.80
2023-12-17T05:17:17.084Z,10.40
2023-12-17T05:20:03.795Z,10.10
2023-12-17T05:22:50.735Z,10.00
2023-12-17T05:25:37.119Z,10.20
2023-12-17T05:28:29.043Z,10.00
2023-12-17T05:31:18.320Z,9.90
2023-12-17T05:34:05.907Z,10.20
2023-12-17T05:36:52.854Z,10.20
2023-12-17T05:39:39.216Z,10.10
2023-12-17T05:42:25.664Z,10.20
2023-12-17T05:45:14.362Z,10.50
2023-12-17T05:48:01.921Z,10.50
2023-12-17T05:50:49.218Z,10.50
2023-12-17T05:53:44.064Z,10.40
2023-12-17T05:56:40.433Z,10.20
2023-12-17T05:59:29.695Z,10.30
2023-12-17T06:02:17.632Z,10.40
2023-12-17T06:05:04.582Z,10.70
2023-12-17T06:07:53.444Z,11.00
2023-12-17T06:10:40.879Z,10.70
2023-12-17T06:13:27.320Z,10.70
2023-12-17T06:16:14.295Z,10.70
2023-12-17T06:19:02.563Z,10.70
2023-12-17T06:21:49.818Z,10.60
2023-12-17T06:24:39.015Z,10.40
2023-12-17T06:27:27.836Z,10.40
2023-12-17T06:30:15.253Z,10.20
2023-12-17T06:33:02.933Z,10.10
2023-12-17T06:35:51.122Z,10.20
2023-12-17T06:38:38.110Z,10.20
2023-12-17T06:41:25.011Z,10.00
2023-12-17T06:44:11.625Z,10.30
2023-12-17T06:46:58.152Z,10.00
2023-12-17T06:49:44.645Z,10.40
2023-12-17T06:52:32.778Z,10.40
2023-12-17T06:55:19.259Z,10.10
2023-12-17T06:58:08.106Z,10.20
2023-12-17T07:00:57.714Z,10.30
2023-12-17T07:03:44.196Z,10.60
2023-12-17T07:06:34.473Z,10.30
2023-12-17T07:09:26.635Z,10.00
2023-12-17T07:12:13.609Z,10.40
2023-12-17T07:15:00.534Z,10.70
2023-12-17T07:17:47.335Z,10.50
2023-12-17T07:20:34.220Z,10.60
2023-12-17T07:23:23.333Z,10.90
2023-12-17T07:26:15.992Z,10.40
2023-12-17T07:29:04.947Z,10.10
2023-12-17T07:31:51.821Z,10.50
2023-12-17T07:34:38.483Z,10.60
2023-12-17T07:37:25.155Z,10.40
2023-12-17T07:40:12.763Z,10.00
2023-12-17T07:43:01.155Z,10.40
2023-12-17T07:45:47.632Z,10.10
2023-12-17T07:48:34.969Z,10.10
2023-12-17T07:51:22.390Z,10.00
2023-12-17T07:54:11.319Z,9.80
2023-12-17T07:57:00.844Z,10.20
2023-12-17T07:59:58.920Z,10.00
2023-12-17T08:02:48.396Z,9.90
2023-12-17T08:05:37.809Z,10.10
2023-12-17T08:08:24.536Z,10.40
2023-12-17T08:11:13.512Z,10.30
2023-12-17T08:14:04.015Z,9.90
2023-12-17T08:16:59.668Z,9.30
2023-12-17T08:19:50.279Z,9.50
2023-12-17T08:22:36.921Z,9.30
2023-12-17T08:25:23.392Z,9.30
2023-12-17T08:28:09.898Z,9.60
2023-12-17T08:30:56.990Z,9.60
2023-12-17T08:33:46.177Z,9.70
2023-12-17T08:36:34.134Z,9.70
2023-12-17T08:39:24.590Z,9.50
2023-12-17T08:42:11.061Z,9.50
2023-12-17T08:44:57.598Z,9.70
2023-12-17T08:47:45.058Z,9.30
2023-12-17T08:50:40.626Z,9.20
2023-12-17T08:53:27.727Z,9.50
2023-12-17T08:56:29.150Z,9.30
2023-12-17T08:59:18.396Z,9.10
2023-12-17T09:02:07.967Z,8.90
2023-12-17T09:04:57.518Z,8.60
2023-12-17T09:07:47.806Z,9.00
2023-12-17T09:10:36.917Z,9.10
2023-12-17T09:13:24.805Z,8.70
2023-12-17T09:16:11.459Z,8.50
2023-12-17T09:18:58.164Z,8.50
2023-12-17T09:21:44.885Z,8.50
2023-12-17T09:24:22.443Z,8.30
2023-12-17T09:26:53.146Z,8.40
2023-12-17T09:29:21.418Z,8.50
2023-12-17T09:31:49.950Z,8.50
2023-12-17T09:34:20.930Z,8.90
2023-12-17T09:36:53.108Z,9.30
2023-12-17T09:39:23.597Z,9.10
2023-12-17T09:41:51.894Z,9.00
2023-12-17T09:44:20.783Z,9.00
2023-12-17T09:46:51.096Z,9.10
2023-12-17T09:49:37.812Z,9.10
2023-12-17T09:52:32.543Z,9.10
2023-12-17T09:55:29.005Z,9.60
2023-12-17T09:58:20.568Z,9.50
2023-12-17T10:01:08.224Z,9.50
2023-12-17T10:03:54.984Z,9.20
2023-12-17T10:06:42.830Z,9.30
2023-12-17T10:09:29.497Z,9.30
2023-12-17T10:12:25.913Z,9.10
2023-12-17T10:15:12.809Z,8.90
2023-12-17T10:18:02.403Z,8.80
2023-12-17T10:20:50.191Z,9.10
2023-12-17T10:23:52.397Z,9.10
2023-12-17T10:26:45.572Z,8.90
2023-12-17T10:29:34.449Z,9.10
2023-12-17T10:32:24.028Z,9.10
2023-12-17T10:35:11.436Z,9.20
2023-12-17T10:38:00.981Z,9.30
2023-12-17T10:40:55.632Z,9.40
2023-12-17T10:43:44.186Z,9.20
2023-12-17T10:46:35.784Z,9.00
2023-12-17T10:49:24.194Z,9.50
2023-12-17T10:52:11.606Z,9.50
2023-12-17T10:55:07.948Z,9.50
2023-12-17T10:58:00.679Z,9.50
2023-12-17T11:00:48.668Z,9.20
2023-12-17T11:03:47.598Z,8.70
2023-12-17T11:06:34.546Z,8.90
2023-12-17T11:09:21.509Z,9.10
2023-12-17T11:12:11.565Z,9.30
2023-12-17T11:15:01.251Z,9.20
2023-12-17T11:17:56.479Z,8.80
2023-12-17T11:20:49.571Z,9.00
2023-12-17T11:23:36.363Z,9.10
2023-12-17T11:26:22.867Z,9.10
2023-12-17T11:29:39.252Z,9.20
2023-12-17T11:32:28.129Z,8.80
2023-12-17T11:35:17.290Z,8.70
2023-12-17T11:38:08.349Z,8.90
2023-12-17T11:40:57.913Z,9.30
2023-12-17T11:43:58.172Z,9.40
2023-12-17T11:46:48.562Z,9.00
2023-12-17T11:49:35.885Z,9.10
2023-12-17T11:52:22.606Z,9.20
2023-12-17T11:55:10.357Z,9.10
2023-12-17T11:58:02.058Z,9.60
2023-12-17T12:00:30.201Z,9.60
2023-12-17T12:02:59.430Z,9.60
2023-12-17T12:05:28.035Z,9.50
2023-12-17T12:07:56.484Z,9.70
2023-12-17T12:10:26.951Z,9.90
2023-12-17T12:13:09.537Z,9.60
2023-12-17T12:15:37.860Z,9.80
2023-12-17T12:18:20.155Z,10.10
2023-12-17T12:20:48.738Z,9.80
2023-12-17T12:23:19.736Z,9.70
2023-12-17T12:25:52.005Z,9.60
2023-12-17T12:28:41.144Z,9.90
2023-12-17T12:31:28.332Z,9.90
2023-12-17T12:34:16.148Z,9.70
2023-12-17T12:37:02.823Z,9.70
2023-12-17T12:40:02.160Z,9.60
2023-12-17T12:43:04.641Z,9.50
2023-12-17T12:45:56.555Z,9.20
2023-12-17T12:48:43.120Z,9.40
2023-12-17T12:51:31.386Z,9.70
2023-12-17T12:54:19.422Z,9.60
2023-12-17T12:57:06.655Z,9.50
2023-12-17T12:59:55.448Z,9.10
2023-12-17T13:02:42.432Z,9.30
2023-12-17T13:05:29.182Z,9.50
2023-12-17T13:08:21.397Z,9.50
2023-12-17T13:11:10.896Z,9.70
2023-12-17T13:13:57.535Z,9.90
2023-12-17T13:16:46.439Z,9.50
2023-12-17T13:19:33.635Z,9.80
2023-12-17T13:22:22.349Z,9.20
2023-12-17T13:25:10.405Z,9.40
2023-12-17T13:27:57.191Z,9.30
2023-12-17T13:30:49.108Z,9.40
2023-12-17T13:33:39.372Z,9.40
2023-12-17T13:36:30.027Z,9.50
2023-12-17T13:39:19.369Z,9.40
2023-12-17T13:42:17.097Z,9.40
2023-12-17T13:45:04.831Z,9.50
2023-12-17T13:47:51.748Z,9.50
2023-12-17T13:50:41.195Z,9.50
2023-12-17T13:53:28.520Z,9.80
2023-12-17T13:56:24.000Z,9.70
2023-12-17T13:59:10.799Z,9.80
2023-12-17T14:02:03.790Z,10.10
2023-12-17T14:04:50.217Z,9.90
2023-12-17T14:07:41.144Z,9.90
2023-12-17T14:10:30.165Z,9.80
2023-12-17T14:13:21.410Z,10.10
2023-12-17T14:16:11.588Z,9.80
2023-12-17T14:18:58.444Z,9.70
2023-12-17T14:21:48.429Z,9.90
2023-12-17T14:24:39.441Z,10.00
2023-12-17T14:27:25.841Z,10.20
2023-12-17T14:30:15.703Z,10.30
2023-12-17T14:33:05.163Z,10.50
2023-12-17T14:35:54.030Z,10.40
2023-12-17T14:38:40.866Z,10.60
2023-12-17T14:41:28.770Z,11.00
2023-12-17T14:44:17.702Z,10.90
2023-12-17T14:47:04.415Z,10.40
2023-12-17T14:49:50.945Z,10.80
2023-12-17T14:52:40.877Z,10.80
2023-12-17T14:55:28.030Z,10.90
2023-12-17T14:58:15.732Z,10.60
2023-12-17T15:01:02.699Z,10.40
2023-12-17T15:03:49.369Z,10.70
2023-12-17T15:06:36.341Z,11.10
2023-12-17T15:09:25.674Z,11.40
2023-12-17T15:12:12.718Z,11.60
2023-12-17T15:15:01.544Z,11.80
2023-12-17T15:17:48.522Z,11.70
2023-12-17T15:20:38.474Z,11.70
2023-12-17T15:23:27.676Z,11.60
2023-12-17T15:26:15.063Z,11.20
2023-12-17T15:29:04.116Z,11.10
2023-12-17T15:31:55.608Z,11.30
2023-12-17T15:34:42.672Z,11.40
2023-12-17T15:37:32.367Z,10.80
2023-12-17T15:40:21.951Z,10.70
2023-12-17T15:43:11.583Z,11.10
2023-12-17T15:45:59.196Z,10.80
2023-12-17T15:48:49.944Z,10.60
2023-12-17T15:51:41.053Z,10.70
2023-12-17T15:54:27.643Z,11.30
2023-12-17T15:57:14.275Z,11.40
2023-12-17T16:00:11.746Z,11.80
2023-12-17T16:03:08.057Z,11.90
2023-12-17T16:05:58.688Z,11.80
2023-12-17T16:08:52.680Z,11.90
2023-12-17T16:11:40.334Z,11.80
2023-12-17T16:14:30.714Z,11.70
2023-12-17T16:17:20.293Z,11.80
2023-12-17T16:20:08.387Z,11.70
2023-12-17T16:22:58.694Z,11.90
2023-12-17T16:25:46.758Z,12.00
2023-12-17T16:28:40.549Z,12.00
2023-12-17T16:31:27.389Z,11.80
2023-12-17T16:34:14.255Z,11.70
2023-12-17T16:37:01.905Z,11.50
2023-12-17T16:39:55.775Z,11.20
2023-12-17T16:42:42.822Z,11.30
2023-12-17T16:45:31.907Z,10.40
2023-12-17T16:48:21.749Z,10.20
2023-12-17T16:51:14.042Z,10.20
2023-12-17T16:54:00.612Z,10.50
2023-12-17T16:56:50.561Z,10.80
2023-12-17T16:59:44.754Z,10.50
2023-12-17T17:02:34.058Z,10.60
2023-12-17T17:05:23.125Z,10.70
2023-12-17T17:08:12.903Z,10.50
2023-12-17T17:11:07.659Z,10.70
2023-12-17T17:14:01.482Z,10.60
2023-12-17T17:16:48.438Z,10.90
2023-12-17T17:19:35.569Z,10.80
2023-12-17T17:22:22.991Z,10.70
2023-12-17T17:25:12.433Z,10.90
2023-12-17T17:28:02.022Z,10.60
2023-12-17T17:30:50.595Z,10.40
2023-12-17T17:33:37.612Z,10.30
2023-12-17T17:36:33.759Z,10.40
2023-12-17T17:39:22.693Z,10.40
2023-12-17T17:42:10.123Z,10.20
2023-12-17T17:44:57.200Z,9.70
2023-12-17T17:47:45.374Z,10.00
2023-12-17T17:50:32.226Z,10.60
2023-12-17T17:53:21.324Z,10.50
2023-12-17T17:56:11.020Z,10.80
2023-12-17T17:58:57.434Z,10.70
2023-12-17T18:01:44.529Z,10.70
2023-12-17T18:04:32.901Z,11.00
2023-12-17T18:07:21.586Z,10.70
2023-12-17T18:10:08.881Z,11.00
2023-12-17T18:12:55.227Z,10.80
2023-12-17T18:15:42.290Z,10.30
2023-12-17T18:18:29.355Z,10.70
2023-12-17T18:21:22.295Z,10.60
2023-12-17T18:24:09.984Z,10.50
2023-12-17T18:27:01.489Z,10.70
2023-12-17T18:29:48.254Z,10.50
2023-12-17T18:32:36.097Z,10.90
2023-12-17T18:35:23.257Z,11.00
2023-12-17T18:38:11.182Z,11.00
2023-12-17T18:40:58.697Z,11.10
2023-12-17T18:43:46.689Z,11.00
2023-12-17T18:46:39.519Z,11.20
2023-12-17T18:49:26.177Z,11.10
2023-12-17T18:52:13.217Z,10.50
2023-12-17T18:55:03.525Z,10.50
2023-12-17T18:57:50.450Z,9.90
2023-12-17T19:00:37.680Z,10.40
2023-12-17T19:03:25.229Z,9.90
2023-12-17T19:06:13.141Z,9.80
2023-12-17T19:09:04.014Z,9.70
2023-12-17T19:11:52.150Z,10.10
2023-12-17T19:14:41.073Z,9.80
2023-12-17T19:17:27.973Z,10.20
2023-12-17T19:20:14.633Z,9.90
2023-12-17T19:23:01.258Z,9.80
2023-12-17T19:25:29.355Z,9.70
2023-12-17T19:28:01.674Z,9.80
2023-12-17T19:30:29.946Z,9.90
2023-12-17T19:32:58.347Z,10.10
2023-12-17T19:35:26.549Z,9.90
2023-12-17T19:37:54.761Z,9.90
2023-12-17T19:40:22.917Z,9.90
2023-12-17T19:42:50.988Z,9.90
2023-12-17T19:45:23.427Z,9.70
2023-12-17T19:47:59.241Z,9.90
2023-12-17T19:50:31.035Z,10.00
2023-12-17T19:53:01.721Z,10.00
2023-12-17T19:55:30.177Z,10.00
2023-12-17T19:57:58.811Z,10.00
2023-12-17T20:00:53.938Z,10.30
2023-12-17T20:03:42.496Z,10.00
2023-12-17T20:06:29.198Z,10.20
2023-12-17T20:09:18.667Z,10.00
2023-12-17T20:12:05.693Z,10.10
2023-12-17T20:14:52.873Z,10.20
2023-12-17T20:17:44.846Z,10.30
2023-12-17T20:20:34.218Z,10.50
2023-12-17T20:23:22.295Z,10.60
2023-12-17T20:26:09.709Z,10.30
2023-12-17T20:28:56.436Z,10.40
2023-12-17T20:31:43.744Z,10.30
2023-12-17T20:34:39.639Z,10.20
2023-12-17T20:37:27.745Z,10.40
2023-12-17T20:40:14.446Z,10.40
2023-12-17T20:43:03.694Z,10.50
2023-12-17T20:45:50.270Z,10.40
2023-12-17T20:48:36.812Z,10.40
2023-12-17T20:51:27.452Z,10.60
2023-12-17T20:54:14.265Z,9.90
2023-12-17T20:57:00.886Z,9.80
2023-12-17T20:59:49.023Z,9.60
2023-12-17T21:02:35.928Z,9.60
2023-12-17T21:05:22.352Z,9.70
2023-12-17T21:08:10.424Z,9.60
2023-12-17T21:10:57.026Z,9.60
2023-12-17T21:13:46.194Z,9.90
2023-12-17T21:16:32.868Z,10.00
2023-12-17T21:19:26.716Z,9.70
2023-12-17T21:22:13.537Z,9.60
2023-12-17T21:25:03.427Z,9.90
2023-12-17T21:27:49.765Z,9.70
2023-12-17T21:30:36.632Z,10.00
2023-12-17T21:33:24.329Z,10.00
2023-12-17T21:36:13.673Z,9.90
2023-12-17T21:39:02.637Z,10.10
2023-12-17T21:41:56.592Z,10.30
2023-12-17T21:44:43.549Z,10.50
2023-12-17T21:47:30.107Z,10.40
2023-12-17T21:50:16.768Z,10.40
2023-12-17T21:52:48.553Z,10.50
2023-12-17T21:55:16.630Z,10.20
2023-12-17T21:57:46.057Z,10.50
2023-12-17T22:00:15.957Z,10.20
2023-12-17T22:02:44.248Z,10.40
2023-12-17T22:05:12.437Z,10.70
2023-12-17T22:07:40.966Z,10.30
2023-12-17T22:10:17.427Z,10.40
2023-12-17T22:12:47.466Z,10.50
2023-12-17T22:15:16.445Z,10.50
2023-12-17T22:17:47.307Z,10.50
2023-12-17T22:20:15.797Z,10.20
2023-12-17T22:22:46.295Z,10.20
2023-12-17T22:25:17.896Z,10.00
2023-12-17T22:27:47.873Z,10.20
2023-12-17T22:30:16.765Z,10.00
2023-12-17T22:32:45.072Z,10.20
2023-12-17T22:35:15.460Z,10.10
2023-12-17T22:37:43.862Z,10.00
2023-12-17T22:40:13.646Z,10.60
2023-12-17T22:42:42.037Z,10.80
2023-12-17T22:45:30.773Z,10.90
2023-12-17T22:48:20.589Z,10.60
2023-12-17T22:51:09.491Z,10.70
2023-12-17T22:53:58.153Z,10.30
2023-12-17T22:56:44.699Z,10.20
2023-12-17T22:59:31.288Z,10.10
2023-12-17T23:02:19.289Z,10.30
2023-12-17T23:05:07.290Z,10.70
2023-12-17T23:07:56.781Z,10.70
2023-12-17T23:10:44.460Z,10.90
2023-12-17T23:13:33.657Z,10.60
2023-12-17T23:16:24.607Z,10.90
2023-12-17T23:19:12.643Z,10.30
2023-12-17T23:21:59.379Z,10.20
2023-12-17T23:24:46.114Z,9.70
2023-12-17T23:27:32.953Z,9.90
2023-12-17T23:30:19.689Z,10.10
2023-12-17T23:33:09.015Z,10.20
2023-12-17T23:35:58.344Z,10.20
2023-12-17T23:38:45.144Z,9.90
2023-12-17T23:41:31.727Z,9.80
2023-12-17T23:44:29.285Z,9.90
2023-12-17T23:47:15.966Z,9.80
2023-12-17T23:50:02.540Z,9.70
2023-12-17T23:52:52.759Z,9.70
2023-12-17T23:55:39.277Z,10.00
2023-12-17T23:58:25.848Z,9.90
